createdAt,value
2017-04-29T00:00:09.876Z,3.26
2017-04-29T00:02:39.032Z,3.40
2017-04-29T00:05:08.630Z,2.90
2017-04-29T00:07:38.545Z,2.38
2017-04-29T00:10:07.731Z,2.82
2017-04-29T00:12:36.924Z,3.24
2017-04-29T00:15:06.089Z,2.80
2017-04-29T00:17:35.266Z,3.54
2017-04-29T00:20:04.460Z,3.04
2017-04-29T00:22:33.280Z,3.30
2017-04-29T00:25:02.676Z,2.68
2017-04-29T00:27:31.530Z,3.58
2017-04-29T00:30:01.428Z,3.28
2017-04-29T00:32:30.618Z,2.90
2017-04-29T00:34:59.818Z,3.74
2017-04-29T00:37:28.988Z,3.70
2017-04-29T00:39:58.168Z,3.72
2017-04-29T00:42:27.030Z,3.10
2017-04-29T00:44:56.938Z,3.28
2017-04-29T00:47:25.698Z,2.88
2017-04-29T00:49:54.557Z,3.82
2017-04-29T00:52:23.385Z,3.54
2017-04-29T00:54:52.553Z,3.80
2017-04-29T00:57:21.769Z,3.38
2017-04-29T00:59:50.984Z,3.90
2017-04-29T01:02:20.157Z,3.84
2017-04-29T01:04:49.361Z,3.86
2017-04-29T01:07:18.533Z,3.28
2017-04-29T01:09:47.694Z,3.50
2017-04-29T01:12:16.550Z,4.02
2017-04-29T01:14:45.717Z,3.64
2017-04-29T01:17:14.893Z,3.62
2017-04-29T01:19:44.813Z,5.08
2017-04-29T01:22:14.717Z,4.62
2017-04-29T01:24:43.892Z,4.66
2017-04-29T01:27:13.089Z,4.78
2017-04-29T01:29:42.492Z,4.98
2017-04-29T01:32:11.666Z,5.20
2017-04-29T01:34:40.857Z,4.26
2017-04-29T01:37:10.017Z,6.36
2017-04-29T01:39:39.189Z,4.92
2017-04-29T01:42:08.389Z,5.00
2017-04-29T01:44:37.553Z,6.60
2017-04-29T01:47:06.717Z,6.02
2017-04-29T01:49:36.646Z,4.62
2017-04-29T01:52:05.117Z,5.74
2017-04-29T01:54:35.025Z,5.80
2017-04-29T01:57:04.982Z,5.90
2017-04-29T01:59:34.149Z,6.48
2017-04-29T02:02:04.065Z,6.30
2017-04-29T02:04:33.661Z,6.32
2017-04-29T02:07:02.829Z,6.32
2017-04-29T02:09:31.997Z,6.46
2017-04-29T02:12:00.845Z,6.68
2017-04-29T02:14:30.390Z,7.14
2017-04-29T02:16:59.226Z,6.88
2017-04-29T02:19:28.416Z,6.74
2017-04-29T02:21:57.688Z,7.74
2017-04-29T02:24:26.866Z,6.92
2017-04-29T02:26:56.065Z,7.64
2017-04-29T02:29:25.290Z,8.22
2017-04-29T02:31:55.897Z,7.56
2017-04-29T02:34:25.096Z,7.04
2017-04-29T02:36:54.283Z,7.70
2017-04-29T02:39:23.470Z,7.38
2017-04-29T02:41:52.330Z,7.20
2017-04-29T02:44:21.518Z,6.82
2017-04-29T02:46:50.685Z,7.52
2017-04-29T02:49:19.528Z,6.66
2017-04-29T02:51:48.346Z,7.76
2017-04-29T02:54:18.258Z,6.92
2017-04-29T02:56:47.464Z,7.34
2017-04-29T02:59:17.374Z,7.62
2017-04-29T03:01:46.600Z,8.20
2017-04-29T03:04:15.800Z,7.56
2017-04-29T03:06:44.978Z,6.88
2017-04-29T03:09:14.203Z,7.04
2017-04-29T03:11:43.417Z,8.92
2017-04-29T03:14:12.586Z,7.34
2017-04-29T03:16:42.506Z,7.36
2017-04-29T03:19:12.493Z,7.86
2017-04-29T03:21:41.656Z,7.20
2017-04-29T03:24:10.817Z,7.12
2017-04-29T03:26:40.766Z,6.76
2017-04-29T03:29:09.934Z,6.66
2017-04-29T03:31:39.105Z,6.68
2017-04-29T03:34:08.297Z,5.98
2017-04-29T03:36:37.466Z,6.08
2017-04-29T03:39:06.628Z,7.16
2017-04-29T03:41:35.828Z,6.72
2017-04-29T03:44:04.989Z,7.16
2017-04-29T03:46:34.164Z,6.28
2017-04-29T03:49:03.390Z,5.90
2017-04-29T03:51:32.556Z,6.06
2017-04-29T03:54:01.378Z,5.80
2017-04-29T03:56:30.578Z,5.30
2017-04-29T03:58:59.746Z,5.64
2017-04-29T04:01:28.906Z,6.12
2017-04-29T04:03:58.902Z,6.82
2017-04-29T04:06:28.085Z,6.30
2017-04-29T04:08:57.250Z,6.70
2017-04-29T04:11:27.868Z,6.58
2017-04-29T04:13:57.045Z,5.56
2017-04-29T04:16:26.969Z,6.54
2017-04-29T04:18:56.161Z,5.28
2017-04-29T04:21:26.140Z,5.70
2017-04-29T04:23:55.314Z,5.98
2017-04-29T04:26:24.512Z,7.44
2017-04-29T04:28:53.681Z,6.02
2017-04-29T04:31:23.596Z,6.12
2017-04-29T04:33:52.986Z,6.12
2017-04-29T04:36:22.888Z,5.60
2017-04-29T04:38:52.080Z,5.66
2017-04-29T04:41:21.244Z,5.62
2017-04-29T04:43:50.409Z,11.14
2017-04-29T04:46:18.913Z,7.74
2017-04-29T04:48:48.072Z,6.40
2017-04-29T04:51:17.232Z,6.42
2017-04-29T04:53:46.757Z,6.30
2017-04-29T04:56:15.581Z,6.16
2017-04-29T04:58:45.496Z,26.00
2017-04-29T05:01:15.437Z,20.54
2017-04-29T05:03:44.605Z,27.62
2017-04-29T05:06:14.519Z,8.50
2017-04-29T05:08:44.454Z,8.74
2017-04-29T05:11:13.618Z,5.34
2017-04-29T05:13:42.787Z,5.00
2017-04-29T05:16:12.086Z,4.50
2017-04-29T05:18:41.254Z,4.42
2017-04-29T05:21:10.418Z,4.68
2017-04-29T05:23:39.604Z,4.88
2017-04-29T05:26:08.421Z,4.62
2017-04-29T05:28:38.320Z,4.12
2017-04-29T05:31:07.512Z,4.40
2017-04-29T05:33:36.668Z,3.66
2017-04-29T05:36:05.550Z,4.06
2017-04-29T05:38:34.746Z,4.16
2017-04-29T05:41:04.193Z,4.30
2017-04-29T05:43:33.362Z,5.12
2017-04-29T05:46:02.565Z,4.26
2017-04-29T05:48:31.725Z,4.50
2017-04-29T05:51:01.660Z,3.78
2017-04-29T05:53:30.857Z,3.34
2017-04-29T05:56:00.857Z,3.92
2017-04-29T05:58:30.462Z,3.78
2017-04-29T06:01:00.397Z,4.16
2017-04-29T06:03:29.569Z,4.48
2017-04-29T06:05:58.754Z,4.40
2017-04-29T06:08:27.948Z,3.50
2017-04-29T06:10:57.125Z,5.24
2017-04-29T06:13:26.289Z,4.22
2017-04-29T06:15:56.221Z,3.94
2017-04-29T06:18:25.381Z,3.32
2017-04-29T06:20:54.553Z,2.46
2017-04-29T06:23:23.748Z,2.78
2017-04-29T06:25:52.601Z,3.16
2017-04-29T06:28:21.764Z,2.58
2017-04-29T06:30:51.450Z,2.58
2017-04-29T06:33:20.621Z,2.50
2017-04-29T06:35:49.445Z,2.20
2017-04-29T06:38:18.641Z,2.04
2017-04-29T06:40:47.470Z,2.20
2017-04-29T06:43:17.033Z,2.12
2017-04-29T06:45:46.229Z,2.24
2017-04-29T06:48:15.397Z,1.96
2017-04-29T06:50:45.756Z,2.64
2017-04-29T06:53:15.260Z,1.72
2017-04-29T06:55:44.421Z,1.72
2017-04-29T06:58:12.889Z,2.18
2017-04-29T07:00:42.833Z,2.34
2017-04-29T07:03:11.992Z,1.92
2017-04-29T07:05:41.917Z,1.88
2017-04-29T07:08:11.513Z,1.58
2017-04-29T07:10:40.680Z,2.72
2017-04-29T07:13:09.500Z,1.80
2017-04-29T07:15:38.700Z,2.04
2017-04-29T07:18:07.870Z,2.36
2017-04-29T07:20:37.032Z,1.90
2017-04-29T07:23:05.876Z,2.04
2017-04-29T07:25:35.046Z,2.44
2017-04-29T07:28:04.212Z,1.96
2017-04-29T07:30:33.085Z,1.70
2017-04-29T07:33:02.994Z,1.32
2017-04-29T07:35:32.934Z,1.50
2017-04-29T07:38:02.101Z,1.10
2017-04-29T07:40:31.264Z,2.02
2017-04-29T07:43:00.460Z,1.18
2017-04-29T07:45:29.633Z,1.38
2017-04-29T07:47:58.807Z,1.34
2017-04-29T07:50:28.553Z,1.50
2017-04-29T07:52:57.382Z,1.70
2017-04-29T07:55:26.554Z,1.24
2017-04-29T07:57:55.754Z,1.56
2017-04-29T08:00:24.245Z,1.70
2017-04-29T08:02:53.438Z,2.34
2017-04-29T08:05:22.284Z,1.22
2017-04-29T08:07:52.185Z,1.28
2017-04-29T08:10:21.356Z,1.38
2017-04-29T08:12:50.549Z,1.20
2017-04-29T08:15:19.717Z,1.42
2017-04-29T08:17:48.879Z,1.52
2017-04-29T08:20:18.077Z,1.36
2017-04-29T08:22:47.984Z,1.28
2017-04-29T08:25:17.169Z,1.60
2017-04-29T08:27:46.365Z,1.78
2017-04-29T08:30:15.181Z,1.58
2017-04-29T08:32:44.344Z,1.42
2017-04-29T08:35:13.545Z,1.46
2017-04-29T08:37:42.721Z,1.78
2017-04-29T08:40:11.550Z,1.50
2017-04-29T08:42:40.748Z,1.80
2017-04-29T08:45:09.565Z,1.48
2017-04-29T08:47:39.473Z,1.20
2017-04-29T08:50:07.961Z,1.42
2017-04-29T08:52:37.526Z,1.72
2017-04-29T08:55:06.349Z,2.66
2017-04-29T08:57:35.528Z,1.32
2017-04-29T09:00:04.692Z,1.66
2017-04-29T09:02:33.853Z,1.82
2017-04-29T09:05:04.445Z,1.80
2017-04-29T09:07:33.268Z,1.90
2017-04-29T09:10:02.438Z,1.82
2017-04-29T09:12:31.625Z,1.66
2017-04-29T09:15:03.243Z,1.54
2017-04-29T09:17:32.450Z,1.86
2017-04-29T09:20:01.627Z,1.30
2017-04-29T09:22:31.550Z,1.56
2017-04-29T09:25:01.481Z,1.30
2017-04-29T09:27:30.645Z,1.58
2017-04-29T09:29:59.806Z,1.66
2017-04-29T09:32:28.996Z,1.48
2017-04-29T09:34:58.252Z,1.94
2017-04-29T09:37:28.193Z,1.88
2017-04-29T09:39:57.394Z,1.70
2017-04-29T09:42:26.597Z,2.14
2017-04-29T09:44:55.778Z,1.80
2017-04-29T09:47:25.365Z,1.38
2017-04-29T09:49:54.551Z,1.78
2017-04-29T09:52:24.081Z,1.40
2017-04-29T09:54:54.049Z,1.48
2017-04-29T09:57:23.310Z,1.64
2017-04-29T09:59:53.224Z,1.80
2017-04-29T10:02:27.259Z,1.48
2017-04-29T10:04:56.577Z,1.96
2017-04-29T10:07:26.620Z,1.56
2017-04-29T10:09:55.795Z,1.62
2017-04-29T10:12:24.614Z,1.76
2017-04-29T10:14:53.813Z,1.22
2017-04-29T10:17:22.989Z,1.34
2017-04-29T10:19:52.191Z,1.28
2017-04-29T10:22:21.399Z,1.56
2017-04-29T10:24:50.561Z,2.00
2017-04-29T10:27:20.807Z,1.70
2017-04-29T10:29:50.038Z,1.80
2017-04-29T10:32:19.204Z,1.62
2017-04-29T10:34:48.414Z,1.60
2017-04-29T10:37:17.640Z,2.12
2017-04-29T10:39:46.800Z,1.30
2017-04-29T10:42:15.980Z,1.10
2017-04-29T10:44:45.141Z,1.00
2017-04-29T10:47:15.052Z,1.10
2017-04-29T10:49:44.248Z,1.30
2017-04-29T10:52:13.418Z,1.34
2017-04-29T10:54:42.580Z,1.32
2017-04-29T10:57:11.829Z,1.38
2017-04-29T10:59:40.997Z,1.54
2017-04-29T11:02:10.156Z,1.44
2017-04-29T11:04:40.310Z,1.36
2017-04-29T11:07:09.468Z,1.30
2017-04-29T11:09:39.389Z,1.72
2017-04-29T11:12:09.569Z,1.26
2017-04-29T11:14:38.741Z,1.14
2017-04-29T11:17:07.904Z,1.48
2017-04-29T11:19:37.841Z,1.60
2017-04-29T11:22:07.008Z,1.48
2017-04-29T11:24:36.168Z,1.48
2017-04-29T11:27:05.370Z,1.30
2017-04-29T11:29:34.537Z,1.32
2017-04-29T11:32:03.370Z,1.40
2017-04-29T11:34:32.561Z,1.40
2017-04-29T11:37:01.724Z,1.52
2017-04-29T11:39:30.880Z,1.70
2017-04-29T11:42:00.078Z,1.68
2017-04-29T11:44:29.251Z,1.60
2017-04-29T11:46:58.412Z,1.62
2017-04-29T11:49:27.608Z,1.42
2017-04-29T11:51:57.513Z,2.00
2017-04-29T11:54:27.456Z,1.24
2017-04-29T11:56:56.617Z,2.28
2017-04-29T11:59:25.785Z,1.64
2017-04-29T12:01:54.974Z,1.52
2017-04-29T12:04:24.136Z,1.56
2017-04-29T12:06:53.302Z,1.44
2017-04-29T12:09:22.526Z,2.04
2017-04-29T12:11:51.697Z,2.00
2017-04-29T12:14:20.861Z,1.72
2017-04-29T12:16:50.052Z,1.34
2017-04-29T12:19:19.218Z,1.62
2017-04-29T12:21:49.132Z,1.50
2017-04-29T12:24:19.065Z,1.58
2017-04-29T12:26:48.229Z,1.50
2017-04-29T12:29:17.389Z,1.58
2017-04-29T12:31:46.584Z,1.60
2017-04-29T12:34:15.760Z,2.10
2017-04-29T12:36:44.924Z,1.70
2017-04-29T12:39:14.109Z,1.92
2017-04-29T12:41:43.268Z,2.28
2017-04-29T12:44:12.134Z,2.26
2017-04-29T12:46:41.336Z,1.80
2017-04-29T12:49:11.273Z,1.90
2017-04-29T12:51:40.463Z,1.68
2017-04-29T12:54:09.656Z,1.36
2017-04-29T12:56:38.825Z,1.80
2017-04-29T12:59:07.984Z,1.66
2017-04-29T13:01:37.177Z,1.68
2017-04-29T13:04:06.358Z,1.64
2017-04-29T13:06:35.525Z,1.36
2017-04-29T13:09:04.789Z,1.48
2017-04-29T13:11:33.608Z,1.48
2017-04-29T13:14:02.782Z,1.80
2017-04-29T13:16:31.993Z,1.50
2017-04-29T13:19:01.163Z,1.64
2017-04-29T13:21:30.325Z,1.78
2017-04-29T13:24:00.308Z,1.52
2017-04-29T13:26:29.130Z,2.12
2017-04-29T13:28:59.041Z,1.94
2017-04-29T13:31:28.977Z,1.84
2017-04-29T13:33:58.137Z,1.70
2017-04-29T13:36:27.309Z,1.60
2017-04-29T13:38:56.501Z,1.82
2017-04-29T13:41:25.664Z,2.22
2017-04-29T13:43:54.486Z,2.42
2017-04-29T13:46:23.709Z,1.82
2017-04-29T13:48:52.882Z,2.00
2017-04-29T13:51:22.047Z,1.80
2017-04-29T13:53:51.245Z,1.82
2017-04-29T13:56:20.408Z,2.20
2017-04-29T13:58:49.568Z,1.84
2017-04-29T14:01:18.762Z,1.46
2017-04-29T14:03:47.926Z,1.92
2017-04-29T14:06:17.857Z,1.80
2017-04-29T14:08:47.026Z,1.70
2017-04-29T14:11:16.194Z,3.24
2017-04-29T14:13:45.385Z,1.50
2017-04-29T14:16:14.558Z,1.70
2017-04-29T14:18:43.726Z,1.80
2017-04-29T14:21:12.925Z,1.78
2017-04-29T14:23:42.841Z,1.88
2017-04-29T14:26:12.011Z,1.80
2017-04-29T14:28:41.205Z,1.92
2017-04-29T14:31:10.373Z,2.00
2017-04-29T14:33:39.193Z,2.30
2017-04-29T14:36:08.394Z,2.42
2017-04-29T14:38:37.555Z,1.40
2017-04-29T14:41:06.716Z,1.76
2017-04-29T14:43:35.937Z,2.06
2017-04-29T14:46:05.850Z,2.40
2017-04-29T14:48:35.760Z,2.06
2017-04-29T14:51:05.352Z,2.28
2017-04-29T14:53:34.522Z,2.22
2017-04-29T14:56:03.345Z,2.74
2017-04-29T14:58:32.540Z,1.80
2017-04-29T15:01:01.702Z,1.98
2017-04-29T15:03:30.860Z,2.06
2017-04-29T15:06:00.789Z,2.00
2017-04-29T15:08:29.949Z,1.94
2017-04-29T15:10:59.109Z,1.54
2017-04-29T15:13:28.300Z,1.90
2017-04-29T15:15:57.464Z,1.74
2017-04-29T15:18:27.386Z,1.74
2017-04-29T15:20:57.325Z,2.60
2017-04-29T15:23:26.494Z,1.86
2017-04-29T15:25:56.408Z,2.22
2017-04-29T15:28:26.345Z,2.76
2017-04-29T15:30:55.519Z,1.70
2017-04-29T15:33:25.397Z,2.34
2017-04-29T15:35:54.585Z,1.86
2017-04-29T15:38:23.754Z,1.44
2017-04-29T15:40:52.954Z,1.92
2017-04-29T15:43:22.415Z,1.70
2017-04-29T15:45:51.576Z,1.62
2017-04-29T15:48:20.781Z,1.92
2017-04-29T15:50:49.937Z,1.82
2017-04-29T15:53:19.874Z,2.04
2017-04-29T15:55:49.045Z,1.96
2017-04-29T15:58:18.962Z,2.00
2017-04-29T16:00:48.896Z,1.96
2017-04-29T16:03:18.071Z,1.78
2017-04-29T16:05:47.539Z,1.72
2017-04-29T16:08:16.747Z,1.80
2017-04-29T16:10:45.908Z,1.54
2017-04-29T16:13:15.074Z,1.52
2017-04-29T16:15:45.005Z,1.48
2017-04-29T16:18:14.904Z,1.94
2017-04-29T16:20:44.076Z,1.58
2017-04-29T16:23:13.272Z,1.68
2017-04-29T16:25:42.445Z,2.80
2017-04-29T16:28:11.617Z,1.56
2017-04-29T16:30:41.552Z,1.96
2017-04-29T16:33:10.714Z,1.74
2017-04-29T16:35:40.648Z,2.26
2017-04-29T16:38:09.842Z,1.66
2017-04-29T16:40:39.745Z,1.88
2017-04-29T16:43:09.684Z,1.58
2017-04-29T16:45:38.860Z,1.70
2017-04-29T16:48:08.765Z,1.94
2017-04-29T16:50:37.956Z,1.78
2017-04-29T16:53:07.128Z,1.58
2017-04-29T16:55:36.288Z,1.82
2017-04-29T16:58:05.132Z,1.70
2017-04-29T17:00:34.292Z,1.62
2017-04-29T17:03:03.452Z,1.72
2017-04-29T17:05:32.649Z,1.74
2017-04-29T17:08:01.809Z,1.70
2017-04-29T17:10:30.968Z,2.00
2017-04-29T17:13:00.565Z,1.90
2017-04-29T17:15:30.468Z,1.56
2017-04-29T17:17:59.658Z,1.70
2017-04-29T17:20:28.849Z,1.84
2017-04-29T17:22:58.008Z,2.06
2017-04-29T17:25:27.164Z,1.78
2017-04-29T17:27:56.358Z,1.82
2017-04-29T17:30:25.531Z,1.86
2017-04-29T17:32:54.701Z,2.14
2017-04-29T17:35:23.908Z,1.50
2017-04-29T17:37:53.069Z,1.86
2017-04-29T17:40:22.988Z,1.84
2017-04-29T17:42:52.929Z,1.70
2017-04-29T17:45:22.098Z,1.90
2017-04-29T17:47:52.025Z,2.28
2017-04-29T17:50:21.230Z,2.04
2017-04-29T17:52:50.403Z,3.04
2017-04-29T17:55:20.324Z,3.52
2017-04-29T17:57:50.509Z,3.14
2017-04-29T18:00:19.672Z,2.60
2017-04-29T18:02:48.833Z,2.30
2017-04-29T18:05:17.681Z,2.50
2017-04-29T18:07:46.845Z,2.74
2017-04-29T18:10:16.009Z,2.10
2017-04-29T18:12:45.205Z,3.12
2017-04-29T18:15:14.373Z,2.50
2017-04-29T18:17:43.191Z,1.70
2017-04-29T18:20:12.389Z,1.68
2017-04-29T18:22:41.208Z,1.90
2017-04-29T18:25:10.772Z,1.98
2017-04-29T18:27:39.987Z,2.46
2017-04-29T18:30:10.385Z,1.92
2017-04-29T18:32:39.568Z,3.04
2017-04-29T18:35:08.766Z,3.18
2017-04-29T18:37:37.276Z,2.92
2017-04-29T18:40:06.455Z,4.48
2017-04-29T18:42:35.650Z,2.80
2017-04-29T18:45:04.476Z,4.40
2017-04-29T18:47:33.640Z,4.50
2017-04-29T18:50:02.845Z,3.78
2017-04-29T18:52:32.113Z,4.72
2017-04-29T18:55:01.679Z,4.20
2017-04-29T18:57:30.880Z,3.96
2017-04-29T19:00:00.036Z,3.66
2017-04-29T19:02:29.201Z,3.44
2017-04-29T19:04:58.453Z,3.24
2017-04-29T19:07:27.632Z,3.98
2017-04-29T19:09:56.456Z,2.64
2017-04-29T19:12:25.711Z,2.88
2017-04-29T19:14:54.898Z,2.82
2017-04-29T19:17:24.828Z,2.92
2017-04-29T19:19:54.176Z,3.18
2017-04-29T19:22:23.342Z,3.20
2017-04-29T19:24:52.546Z,2.36
2017-04-29T19:27:21.705Z,2.98
2017-04-29T19:29:51.681Z,2.82
2017-04-29T19:32:20.868Z,3.62
2017-04-29T19:34:50.034Z,2.70
2017-04-29T19:37:19.953Z,3.44
2017-04-29T19:39:49.894Z,2.26
2017-04-29T19:42:18.765Z,3.22
2017-04-29T19:44:47.602Z,3.82
2017-04-29T19:47:16.841Z,3.38
2017-04-29T19:49:46.758Z,3.44
2017-04-29T19:52:16.698Z,3.12
2017-04-29T19:54:45.865Z,3.92
2017-04-29T19:57:15.776Z,3.32
2017-04-29T19:59:44.969Z,3.34
2017-04-29T20:02:14.752Z,3.56
2017-04-29T20:04:47.274Z,3.96
2017-04-29T20:07:19.352Z,3.06
2017-04-29T20:09:49.589Z,3.40
2017-04-29T20:12:19.096Z,3.90
2017-04-29T20:14:48.659Z,3.28
2017-04-29T20:17:18.597Z,3.12
2017-04-29T20:19:48.185Z,3.16
2017-04-29T20:22:17.346Z,3.74
2017-04-29T20:24:46.510Z,3.06
2017-04-29T20:27:16.105Z,3.46
2017-04-29T20:29:46.013Z,4.62
2017-04-29T20:32:15.954Z,3.36
2017-04-29T20:34:44.785Z,3.80
2017-04-29T20:37:14.397Z,3.52
2017-04-29T20:39:43.600Z,4.00
2017-04-29T20:42:12.111Z,3.52
2017-04-29T20:44:41.670Z,3.70
2017-04-29T20:47:10.864Z,3.30
2017-04-29T20:49:40.021Z,3.22
2017-04-29T20:52:09.940Z,3.18
2017-04-29T20:54:39.878Z,2.88
2017-04-29T20:57:09.045Z,3.00
2017-04-29T20:59:38.213Z,2.76
2017-04-29T21:02:07.413Z,2.80
2017-04-29T21:04:36.577Z,2.76
2017-04-29T21:07:05.395Z,2.74
2017-04-29T21:09:34.585Z,2.58
2017-04-29T21:12:03.754Z,2.48
2017-04-29T21:14:33.396Z,2.22
2017-04-29T21:17:02.594Z,3.48
2017-04-29T21:19:31.763Z,2.68
2017-04-29T21:22:00.937Z,2.98
2017-04-29T21:24:30.877Z,3.26
2017-04-29T21:27:00.056Z,2.72
2017-04-29T21:29:29.984Z,2.90
2017-04-29T21:31:59.928Z,4.00
2017-04-29T21:34:29.097Z,3.24
2017-04-29T21:36:58.270Z,2.72
2017-04-29T21:39:27.466Z,3.40
2017-04-29T21:41:56.949Z,3.66
2017-04-29T21:44:26.117Z,2.86
2017-04-29T21:46:55.337Z,2.60
2017-04-29T21:49:24.510Z,2.92
2017-04-29T21:51:53.950Z,6.42
2017-04-29T21:54:22.848Z,3.42
2017-04-29T21:56:52.022Z,4.48
2017-04-29T21:59:21.186Z,4.56
2017-04-29T22:01:50.774Z,3.96
2017-04-29T22:04:19.947Z,4.24
2017-04-29T22:06:49.108Z,4.62
2017-04-29T22:09:18.306Z,3.54
2017-04-29T22:11:47.484Z,2.48
2017-04-29T22:14:17.411Z,3.20
2017-04-29T22:16:46.270Z,3.12
2017-04-29T22:19:16.181Z,3.06
2017-04-29T22:21:44.664Z,3.30
2017-04-29T22:24:13.866Z,2.32
2017-04-29T22:26:43.029Z,2.28
2017-04-29T22:29:12.200Z,3.02
2017-04-29T22:31:41.408Z,4.18
2017-04-29T22:34:10.578Z,4.36
2017-04-29T22:36:40.133Z,3.24
2017-04-29T22:39:09.349Z,4.02
2017-04-29T22:41:38.519Z,3.62
2017-04-29T22:44:07.680Z,3.52
2017-04-29T22:46:37.658Z,3.38
2017-04-29T22:49:06.826Z,3.40
2017-04-29T22:51:35.988Z,3.52
2017-04-29T22:54:05.920Z,3.12
2017-04-29T22:56:35.830Z,3.68
2017-04-29T22:59:05.745Z,3.30
2017-04-29T23:01:35.665Z,4.34
2017-04-29T23:04:04.895Z,3.08
2017-04-29T23:06:34.053Z,3.80
2017-04-29T23:09:03.456Z,4.26
2017-04-29T23:11:33.365Z,3.70
2017-04-29T23:14:02.952Z,3.80
2017-04-29T23:16:32.112Z,4.54
2017-04-29T23:19:01.268Z,4.22
2017-04-29T23:21:30.466Z,4.66
2017-04-29T23:23:59.629Z,4.30
2017-04-29T23:26:28.788Z,4.24
2017-04-29T23:28:57.981Z,3.78
2017-04-29T23:31:27.884Z,3.60
2017-04-29T23:33:57.814Z,4.44
2017-04-29T23:36:27.728Z,3.56
2017-04-29T23:38:57.297Z,3.70
2017-04-29T23:41:26.457Z,3.34
2017-04-29T23:43:55.744Z,4.00
2017-04-29T23:46:24.566Z,4.32
2017-04-29T23:48:53.728Z,3.94
2017-04-29T23:51:22.941Z,3.04
2017-04-29T23:53:52.099Z,3.50
2017-04-29T23:56:21.253Z,3.34
2017-04-29T23:58:50.444Z,4.88
